Time;durP1;ratioP1;P1;durP2;ratioP2;P2;SDS_P1;SDS_P2;PMS_P1;PMS_P2;Temp;Humidity;BMP_temperature;BMP_pressure;BME280_temperature;BME280_humidity;BME280_pressure;Samples;Min_cycle;Max_cycle;Signal;HPM_P1;HPM_P2
2022/07/29 00:02:15;;;;;;;7.80;2.77;;;23.50;52.00;;;;;;5029079;28;20476;-80
2022/07/29 00:04:43;;;;;;;8.50;2.80;;;23.40;52.00;;;;;;5018371;28;20468;-80
2022/07/29 00:07:11;;;;;;;8.50;3.27;;;23.40;52.00;;;;;;5028775;28;20485;-80
2022/07/29 00:09:40;;;;;;;6.00;2.80;;;23.40;52.00;;;;;;5028260;28;20656;-80
2022/07/29 00:12:19;;;;;;;7.80;2.97;;;23.30;52.10;;;;;;5026787;28;20462;-80
2022/07/29 00:14:54;;;;;;;9.53;3.17;;;23.20;52.10;;;;;;5026830;28;20469;-80
2022/07/29 00:17:24;;;;;;;8.20;3.13;;;23.20;52.20;;;;;;5026753;28;20508;-80
2022/07/29 00:19:53;;;;;;;6.93;2.83;;;23.10;52.30;;;;;;5027171;28;20488;-80
2022/07/29 00:22:21;;;;;;;7.07;3.07;;;23.10;52.40;;;;;;5025464;28;20464;-80
2022/07/29 00:24:49;;;;;;;6.00;2.30;;;23.10;52.50;;;;;;5026307;28;20459;-80
2022/07/29 00:27:18;;;;;;;8.10;3.40;;;23.00;52.60;;;;;;5027590;28;20466;-79
2022/07/29 00:29:46;;;;;;;7.97;3.27;;;23.00;52.60;;;;;;5010192;28;20486;-79
2022/07/29 00:32:14;;;;;;;7.13;3.00;;;23.00;52.70;;;;;;5024807;28;20484;-81
2022/07/29 00:37:29;;;;;;;8.33;3.30;;;23.00;52.90;;;;;;5023342;28;20625;-81
2022/07/29 00:39:57;;;;;;;6.60;2.83;;;22.90;53.00;;;;;;5024212;28;20467;-80
2022/07/29 00:42:25;;;;;;;7.07;3.30;;;22.90;53.10;;;;;;5009432;28;20957;-81
2022/07/29 00:44:53;;;;;;;7.80;2.73;;;22.80;53.20;;;;;;5025459;28;20471;-81
2022/07/29 00:47:21;;;;;;;8.47;3.43;;;22.80;53.20;;;;;;5023523;28;20957;-81
2022/07/29 00:49:50;;;;;;;6.57;3.30;;;22.80;53.30;;;;;;5025780;28;20496;-81
2022/07/29 00:52:18;;;;;;;8.20;3.27;;;22.70;53.30;;;;;;5024379;28;21131;-81
2022/07/29 00:54:46;;;;;;;7.57;3.30;;;22.70;53.30;;;;;;5025448;28;20470;-80
2022/07/29 00:57:15;;;;;;;11.23;3.33;;;22.70;53.40;;;;;;5024766;28;20467;-80
2022/07/29 00:59:43;;;;;;;10.60;3.23;;;22.70;53.50;;;;;;5024877;28;20482;-81
2022/07/29 01:02:11;;;;;;;6.87;3.00;;;22.70;53.50;;;;;;5023669;28;20492;-81
2022/07/29 01:04:39;;;;;;;11.27;3.63;;;22.70;53.50;;;;;;5023131;28;20498;-81
2022/07/29 01:07:09;;;;;;;6.20;2.97;;;22.70;53.40;;;;;;5037721;28;20806;-81
2022/07/29 01:09:38;;;;;;;5.73;3.10;;;22.60;53.40;;;;;;5022546;28;20590;-81
2022/07/29 01:12:18;;;;;;;6.47;3.40;;;22.60;53.40;;;;;;5028816;28;20459;-81
2022/07/29 01:14:47;;;;;;;6.43;3.40;;;22.50;53.50;;;;;;5024692;28;20546;-80
2022/07/29 01:17:20;;;;;;;6.73;3.23;;;22.40;53.60;;;;;;5018897;28;20504;-80
2022/07/29 01:19:53;;;;;;;8.23;3.60;;;22.40;53.70;;;;;;5024992;28;20487;-81
2022/07/29 01:22:54;;;;;;;12.33;2.83;;;22.40;53.80;;;;;;5023739;28;20466;-81
2022/07/29 01:25:47;;;;;;;9.07;2.90;;;22.40;53.90;;;;;;5024992;28;20463;-82
2022/07/29 01:28:56;;;;;;;7.97;3.43;;;22.40;54.00;;;;;;4994520;28;20480;-81
2022/07/29 01:31:31;;;;;;;6.40;3.20;;;22.40;54.10;;;;;;5006012;28;20460;-81
2022/07/29 01:34:07;;;;;;;9.80;3.50;;;22.40;54.10;;;;;;5022587;28;20484;-81
2022/07/29 01:36:41;;;;;;;10.10;3.70;;;22.40;54.20;;;;;;5023567;28;20472;-80
2022/07/29 01:39:13;;;;;;;6.90;3.13;;;22.30;54.20;;;;;;5024363;28;20495;-81
2022/07/29 01:41:48;;;;;;;8.00;3.00;;;22.30;54.30;;;;;;5025053;28;20553;-81
2022/07/29 01:44:23;;;;;;;7.37;3.27;;;22.30;54.40;;;;;;5024421;28;20467;-80
2022/07/29 01:46:55;;;;;;;8.20;3.40;;;22.30;54.40;;;;;;5023898;28;20485;-81
2022/07/29 01:49:27;;;;;;;7.00;3.90;;;22.30;54.40;;;;;;5022643;28;20828;-80
2022/07/29 01:51:59;;;;;;;7.87;3.50;;;22.30;54.50;;;;;;5023984;28;20466;-81
2022/07/29 01:54:33;;;;;;;7.13;3.43;;;22.30;54.50;;;;;;5028218;28;20454;-80
2022/07/29 01:57:02;;;;;;;8.20;3.50;;;22.20;54.60;;;;;;5008684;28;20453;-79
2022/07/29 01:59:34;;;;;;;7.17;3.97;;;22.20;54.60;;;;;;5022542;28;20489;-80
2022/07/29 02:02:08;;;;;;;10.60;3.83;;;22.20;54.60;;;;;;5023163;28;20576;-79
2022/07/29 02:04:37;;;;;;;7.50;3.80;;;22.20;54.70;;;;;;5021912;28;20473;-80
2022/07/29 02:07:07;;;;;;;7.33;3.90;;;22.20;54.80;;;;;;5025119;28;20456;-81
2022/07/29 02:09:37;;;;;;;7.00;3.30;;;22.20;54.90;;;;;;5025641;28;20515;-80
2022/07/29 02:12:08;;;;;;;11.00;3.60;;;22.10;55.00;;;;;;5014004;28;20465;-80
2022/07/29 02:14:41;;;;;;;12.03;3.40;;;22.10;55.10;;;;;;5013005;28;20470;-80
2022/07/29 02:17:09;;;;;;;7.77;3.60;;;22.10;55.20;;;;;;5011364;28;20487;-80
2022/07/29 02:19:39;;;;;;;9.00;3.50;;;22.00;55.20;;;;;;5014740;28;20504;-80
2022/07/29 02:22:09;;;;;;;10.10;3.73;;;21.90;55.30;;;;;;5027475;28;20472;-80
2022/07/29 02:24:40;;;;;;;7.63;3.40;;;21.90;55.40;;;;;;5028110;28;20460;-80
2022/07/29 02:27:09;;;;;;;7.90;4.27;;;21.90;55.40;;;;;;5028577;28;20465;-81
2022/07/29 02:29:40;;;;;;;7.27;3.90;;;21.80;55.60;;;;;;5011586;28;20475;-80
2022/07/29 02:32:11;;;;;;;9.63;3.63;;;21.80;55.70;;;;;;5028043;28;20513;-80
2022/07/29 02:34:40;;;;;;;6.93;3.53;;;21.70;55.80;;;;;;5027913;28;20491;-80
2022/07/29 02:37:10;;;;;;;9.90;3.70;;;21.70;55.90;;;;;;5029127;28;20525;-81
2022/07/29 02:39:41;;;;;;;16.10;4.10;;;21.70;56.00;;;;;;5028570;28;20476;-80
2022/07/29 02:42:13;;;;;;;7.93;3.60;;;21.60;56.10;;;;;;5027060;28;20472;-81
2022/07/29 02:44:43;;;;;;;10.90;4.03;;;21.60;56.30;;;;;;5028541;28;20507;-80
2022/07/29 02:47:17;;;;;;;8.30;3.90;;;21.60;56.30;;;;;;5026576;28;20474;-80
2022/07/29 02:49:51;;;;;;;10.00;4.13;;;21.50;56.40;;;;;;5026167;28;20504;-80
2022/07/29 02:52:23;;;;;;;10.10;4.17;;;21.50;56.50;;;;;;5026704;28;21106;-80
2022/07/29 02:54:56;;;;;;;7.77;3.80;;;21.50;56.50;;;;;;5015290;28;20482;-81
2022/07/29 02:57:32;;;;;;;8.33;3.70;;;21.50;56.50;;;;;;5026828;28;20456;-80
2022/07/29 03:00:05;;;;;;;9.23;3.37;;;21.50;56.60;;;;;;5026096;28;20459;-80
2022/07/29 03:02:37;;;;;;;7.90;3.40;;;21.50;56.60;;;;;;5025710;28;20473;-80
2022/07/29 03:05:08;;;;;;;7.47;3.57;;;21.50;56.70;;;;;;5028214;28;20572;-81
2022/07/29 03:07:38;;;;;;;10.37;4.27;;;21.40;56.70;;;;;;5024559;28;20465;-81
2022/07/29 03:10:16;;;;;;;8.63;3.57;;;21.40;56.80;;;;;;5035773;28;20555;-81
2022/07/29 03:12:44;;;;;;;9.13;4.10;;;21.40;56.90;;;;;;5008773;28;20473;-81
2022/07/29 03:15:14;;;;;;;7.20;3.40;;;21.40;57.00;;;;;;5015571;28;20463;-81
2022/07/29 03:17:43;;;;;;;7.60;3.53;;;21.30;57.10;;;;;;5027860;28;20465;-81
2022/07/29 03:20:12;;;;;;;8.40;3.30;;;21.30;57.10;;;;;;5027928;28;20472;-81
2022/07/29 03:22:43;;;;;;;8.83;4.30;;;21.30;57.20;;;;;;5025141;28;20500;-80
2022/07/29 03:25:12;;;;;;;9.13;3.60;;;21.20;57.20;;;;;;5029901;28;20456;-80
2022/07/29 03:27:40;;;;;;;8.83;3.67;;;21.20;57.30;;;;;;5009732;28;20470;-81
2022/07/29 03:30:09;;;;;;;7.83;3.73;;;21.20;57.40;;;;;;5030179;28;20498;-79
2022/07/29 03:32:39;;;;;;;8.60;3.60;;;21.20;57.50;;;;;;5023913;28;20633;-80
2022/07/29 03:35:08;;;;;;;7.67;3.80;;;21.20;57.60;;;;;;5013589;28;20465;-80
2022/07/29 03:37:37;;;;;;;7.47;4.00;;;21.20;57.60;;;;;;5020423;28;20859;-81
2022/07/29 03:40:09;;;;;;;8.40;4.10;;;21.20;57.60;;;;;;5026780;28;20456;-80
2022/07/29 03:42:40;;;;;;;7.70;3.60;;;21.20;57.60;;;;;;5027710;28;20452;-81
2022/07/29 03:45:11;;;;;;;8.73;4.10;;;21.30;57.70;;;;;;5011008;28;20453;-81
2022/07/29 03:47:45;;;;;;;9.73;3.40;;;21.30;57.70;;;;;;5027309;28;20464;-80
2022/07/29 03:50:19;;;;;;;7.47;4.13;;;21.30;57.70;;;;;;5027077;28;20487;-80
2022/07/29 03:52:48;;;;;;;8.33;4.27;;;21.20;57.70;;;;;;5026020;28;21025;-81
2022/07/29 03:55:17;;;;;;;9.00;4.10;;;21.20;57.80;;;;;;5027405;28;20461;-81
2022/07/29 03:57:47;;;;;;;10.57;4.60;;;21.20;57.90;;;;;;5009213;28;20459;-81
2022/07/29 04:00:16;;;;;;;8.77;4.10;;;21.10;57.90;;;;;;5026745;28;20452;-80
2022/07/29 04:02:48;;;;;;;10.07;4.10;;;21.10;58.00;;;;;;5031487;28;20492;-81
2022/07/29 04:05:17;;;;;;;9.00;4.20;;;21.10;58.10;;;;;;5027478;28;20573;-80
2022/07/29 04:07:46;;;;;;;9.60;3.83;;;21.10;58.10;;;;;;5024879;28;20473;-80
2022/07/29 04:10:16;;;;;;;8.70;4.17;;;21.10;58.20;;;;;;5026500;28;20469;-80
2022/07/29 04:12:57;;;;;;;9.10;4.30;;;21.10;58.20;;;;;;5028208;28;20455;-80
2022/07/29 04:15:25;;;;;;;11.43;4.00;;;21.10;58.20;;;;;;5026993;28;20471;-80
2022/07/29 04:17:59;;;;;;;11.93;4.40;;;21.10;58.10;;;;;;5029927;28;20604;-79
2022/07/29 04:20:27;;;;;;;11.90;3.93;;;21.10;58.00;;;;;;5031041;28;20495;-79
2022/07/29 04:22:55;;;;;;;10.70;3.90;;;21.00;58.00;;;;;;5023815;28;20464;-80
2022/07/29 04:25:23;;;;;;;7.03;4.20;;;21.00;58.10;;;;;;5026931;28;20452;-79
2022/07/29 04:28:03;;;;;;;7.57;3.77;;;20.90;58.10;;;;;;5008657;28;20583;-80
2022/07/29 04:30:33;;;;;;;7.90;3.90;;;20.90;58.20;;;;;;5022828;28;20472;-80
2022/07/29 04:33:03;;;;;;;10.17;4.73;;;21.00;58.30;;;;;;5021395;28;20463;-80
2022/07/29 04:35:34;;;;;;;10.93;4.20;;;21.00;58.30;;;;;;5025697;28;20465;-79
2022/07/29 04:38:05;;;;;;;8.33;3.90;;;21.00;58.20;;;;;;5019771;28;20564;-79
2022/07/29 04:40:34;;;;;;;9.50;4.00;;;21.00;58.20;;;;;;5024124;28;20455;-79
2022/07/29 04:43:06;;;;;;;13.33;3.80;;;20.90;58.30;;;;;;5021486;28;20474;-79
2022/07/29 04:45:34;;;;;;;7.67;3.97;;;20.90;58.30;;;;;;5022451;28;20586;-79
2022/07/29 04:48:03;;;;;;;9.43;4.30;;;21.00;58.30;;;;;;5021370;28;20486;-79
2022/07/29 04:50:31;;;;;;;10.43;4.00;;;21.00;58.50;;;;;;5030226;28;20464;-78
2022/07/29 04:52:59;;;;;;;7.27;3.60;;;21.00;58.50;;;;;;5024192;28;20466;-78
2022/07/29 04:55:27;;;;;;;13.50;4.13;;;21.10;58.60;;;;;;5028601;28;21024;-79
2022/07/29 04:57:55;;;;;;;10.17;4.23;;;21.20;58.70;;;;;;5025204;28;20613;-79
2022/07/29 05:00:23;;;;;;;11.57;4.23;;;21.20;58.90;;;;;;5024640;28;20473;-79
2022/07/29 05:03:00;;;;;;;13.70;4.30;;;21.40;58.90;;;;;;5024215;28;20510;-79
2022/07/29 05:05:30;;;;;;;8.10;4.60;;;21.50;59.00;;;;;;5023964;28;20500;-80
2022/07/29 05:07:57;;;;;;;8.83;4.30;;;21.70;58.80;;;;;;5014287;28;20487;-79
2022/07/29 05:10:26;;;;;;;9.23;4.70;;;21.90;58.80;;;;;;5030380;28;20475;-79
2022/07/29 05:12:53;;;;;;;8.30;3.93;;;22.10;58.60;;;;;;5032199;28;20487;-80
2022/07/29 05:15:21;;;;;;;13.77;4.70;;;22.30;58.50;;;;;;5021105;28;20474;-80
2022/07/29 05:17:49;;;;;;;11.83;4.00;;;22.40;58.40;;;;;;5027418;28;20462;-79
2022/07/29 05:20:18;;;;;;;10.37;4.60;;;22.60;58.30;;;;;;5025303;28;20468;-79
2022/07/29 05:22:47;;;;;;;10.93;3.93;;;22.80;58.20;;;;;;5025527;28;20457;-80
2022/07/29 05:25:15;;;;;;;9.93;4.00;;;23.00;58.10;;;;;;5025819;28;20453;-79
2022/07/29 05:27:43;;;;;;;15.10;4.20;;;23.20;58.10;;;;;;5025114;28;20476;-79
2022/07/29 05:30:12;;;;;;;11.03;4.30;;;23.50;57.60;;;;;;5020207;28;20452;-79
2022/07/29 05:32:40;;;;;;;6.80;3.80;;;23.70;56.60;;;;;;5007063;28;21013;-80
2022/07/29 05:35:08;;;;;;;9.53;3.40;;;23.70;56.20;;;;;;5024914;28;20554;-79
2022/07/29 05:37:36;;;;;;;13.07;4.80;;;24.20;56.60;;;;;;5026643;28;20452;-80
2022/07/29 05:40:07;;;;;;;11.03;4.00;;;25.10;55.60;;;;;;5027172;28;20477;-79
2022/07/29 05:42:35;;;;;;;10.40;4.10;;;25.60;53.80;;;;;;5015437;28;20454;-79
2022/07/29 05:45:04;;;;;;;8.87;3.90;;;25.90;53.40;;;;;;5027483;28;20463;-79
2022/07/29 05:47:32;;;;;;;8.30;3.73;;;26.00;53.40;;;;;;5024895;28;20486;-79
2022/07/29 05:50:00;;;;;;;11.60;3.80;;;26.70;53.10;;;;;;5027731;28;20478;-80
2022/07/29 05:52:28;;;;;;;7.87;3.57;;;27.40;52.10;;;;;;5027677;28;20495;-79
2022/07/29 05:54:57;;;;;;;9.70;4.17;;;28.20;51.40;;;;;;5029291;28;20459;-79
2022/07/29 05:57:26;;;;;;;14.30;4.17;;;29.10;50.40;;;;;;5018718;28;20464;-79
2022/07/29 05:59:54;;;;;;;10.60;4.07;;;30.00;49.10;;;;;;5033925;28;20493;-78
2022/07/29 06:02:22;;;;;;;11.83;4.60;;;30.80;48.10;;;;;;5034390;28;20475;-79
2022/07/29 06:04:50;;;;;;;9.13;3.60;;;31.40;47.10;;;;;;5034705;28;20479;-79
2022/07/29 06:07:18;;;;;;;14.00;3.70;;;31.90;46.10;;;;;;5036274;28;21041;-78
2022/07/29 06:09:46;;;;;;;10.00;4.00;;;32.30;45.20;;;;;;5034383;28;20846;-79
2022/07/29 06:12:14;;;;;;;7.67;3.60;;;32.60;44.40;;;;;;5016408;28;20573;-78
2022/07/29 06:14:43;;;;;;;9.00;3.57;;;32.70;43.70;;;;;;5023569;28;20454;-78
2022/07/29 06:17:12;;;;;;;11.07;4.50;;;32.50;43.40;;;;;;5024402;28;21040;-78
2022/07/29 06:19:40;;;;;;;13.73;4.03;;;32.40;43.50;;;;;;5029417;28;20481;-80
2022/07/29 06:22:08;;;;;;;10.00;4.67;;;32.10;42.30;;;;;;5029461;28;20462;-79
2022/07/29 06:24:37;;;;;;;7.40;3.27;;;31.00;42.50;;;;;;5030365;28;20458;-79
2022/07/29 06:27:05;;;;;;;9.13;3.50;;;29.70;43.10;;;;;;5027781;28;20968;-79
2022/07/29 06:29:33;;;;;;;9.23;3.63;;;28.50;43.90;;;;;;5028741;28;20881;-78
2022/07/29 06:32:03;;;;;;;10.80;3.77;;;27.50;44.80;;;;;;5014372;28;20498;-79
2022/07/29 06:34:30;;;;;;;8.63;3.87;;;26.70;45.60;;;;;;5029504;28;20460;-79
2022/07/29 06:36:58;;;;;;;31.23;7.20;;;26.00;46.40;;;;;;5027762;28;20460;-78
2022/07/29 06:39:27;;;;;;;8.90;3.80;;;25.50;47.20;;;;;;5029067;28;20472;-78
2022/07/29 06:41:55;;;;;;;8.80;3.53;;;25.10;47.80;;;;;;5014557;28;20463;-79
2022/07/29 06:44:25;;;;;;;6.53;3.13;;;24.80;48.30;;;;;;5031010;28;20461;-78
2022/07/29 06:46:54;;;;;;;10.03;3.27;;;24.60;48.80;;;;;;5028406;28;20472;-78
2022/07/29 06:49:25;;;;;;;7.27;3.70;;;24.50;49.30;;;;;;5028174;28;20566;-78
2022/07/29 06:51:54;;;;;;;13.73;4.67;;;24.40;49.70;;;;;;5025416;28;20472;-78
2022/07/29 06:54:22;;;;;;;10.20;3.33;;;24.30;49.90;;;;;;5028533;28;20482;-79
2022/07/29 06:56:50;;;;;;;8.60;3.80;;;24.20;50.40;;;;;;5029935;28;21059;-79
2022/07/29 06:59:18;;;;;;;7.90;4.03;;;24.20;50.60;;;;;;5027765;28;20726;-79
2022/07/29 07:01:52;;;;;;;13.77;4.13;;;24.20;50.90;;;;;;5027913;28;20477;-79
2022/07/29 07:04:20;;;;;;;11.20;3.87;;;24.10;51.10;;;;;;5030096;28;20454;-78
2022/07/29 07:06:50;;;;;;;9.87;3.30;;;24.00;51.30;;;;;;5028819;28;21039;-79
2022/07/29 07:09:17;;;;;;;10.00;3.90;;;24.00;51.60;;;;;;5022799;28;20482;-79
2022/07/29 07:11:45;;;;;;;7.13;3.10;;;24.00;51.80;;;;;;5026914;28;20852;-79
2022/07/29 07:14:16;;;;;;;9.27;3.40;;;24.00;51.90;;;;;;5028912;28;20857;-79
2022/07/29 07:16:44;;;;;;;8.03;3.83;;;24.00;52.10;;;;;;5030216;28;21208;-79
2022/07/29 07:19:13;;;;;;;12.50;3.40;;;24.00;52.30;;;;;;5016067;28;20485;-78
2022/07/29 07:21:41;;;;;;;7.67;4.07;;;24.00;52.40;;;;;;5030882;28;20522;-79
2022/07/29 07:24:11;;;;;;;10.40;3.67;;;24.10;52.50;;;;;;5027914;28;20450;-79
2022/07/29 07:26:40;;;;;;;9.00;4.30;;;24.20;52.60;;;;;;5017508;28;20489;-78
2022/07/29 07:29:08;;;;;;;9.37;3.40;;;24.20;52.80;;;;;;5026874;28;20589;-79
2022/07/29 07:31:37;;;;;;;8.10;3.40;;;24.30;52.90;;;;;;5026704;28;20603;-79
2022/07/29 07:34:05;;;;;;;5.90;3.50;;;24.30;52.90;;;;;;5026894;28;21250;-78
2022/07/29 07:36:33;;;;;;;10.63;3.90;;;24.40;53.10;;;;;;5017294;28;20467;-78
2022/07/29 07:39:02;;;;;;;8.40;3.73;;;24.50;53.00;;;;;;5013455;28;20515;-79
2022/07/29 07:41:31;;;;;;;10.33;3.57;;;24.50;53.10;;;;;;5026592;28;20513;-79
2022/07/29 07:43:59;;;;;;;7.30;3.70;;;24.60;53.10;;;;;;5033556;28;20474;-79
2022/07/29 07:46:27;;;;;;;8.67;3.60;;;24.70;53.20;;;;;;5026979;28;21018;-79
2022/07/29 07:48:55;;;;;;;6.60;2.97;;;24.80;53.20;;;;;;5034422;28;20498;-78
2022/07/29 07:51:23;;;;;;;8.13;4.30;;;24.90;53.20;;;;;;5027701;28;20470;-78
2022/07/29 07:53:51;;;;;;;10.97;3.83;;;25.00;53.10;;;;;;5024563;28;20498;-79
2022/07/29 07:56:20;;;;;;;9.60;3.20;;;25.00;53.00;;;;;;5027328;28;20455;-79
2022/07/29 07:58:50;;;;;;;7.80;3.50;;;25.00;52.90;;;;;;5028154;28;20594;-78
2022/07/29 08:01:21;;;;;;;8.00;3.87;;;25.00;52.90;;;;;;5022642;28;20461;-78
2022/07/29 08:03:49;;;;;;;7.53;3.60;;;25.00;52.90;;;;;;5025218;28;20460;-79
2022/07/29 08:06:17;;;;;;;13.37;3.70;;;25.00;53.00;;;;;;5025843;28;20457;-78
2022/07/29 08:08:44;;;;;;;11.77;3.70;;;25.00;53.10;;;;;;5028822;28;20471;-78
2022/07/29 08:11:15;;;;;;;8.07;3.63;;;25.00;53.10;;;;;;5026406;28;20976;-78
2022/07/29 08:13:43;;;;;;;11.70;4.10;;;25.10;53.10;;;;;;5027085;28;20476;-79
2022/07/29 08:16:14;;;;;;;8.40;3.83;;;25.10;53.10;;;;;;5023894;28;20809;-79
2022/07/29 08:18:43;;;;;;;8.87;4.37;;;25.20;53.10;;;;;;5025480;28;20500;-79
2022/07/29 08:21:12;;;;;;;10.53;3.83;;;25.20;53.20;;;;;;5024190;28;20477;-79
2022/07/29 08:23:48;;;;;;;11.40;3.90;;;25.30;53.10;;;;;;5027114;28;20456;-79
2022/07/29 08:26:25;;;;;;;9.33;3.50;;;25.30;53.10;;;;;;5026374;28;20456;-78
2022/07/29 08:28:53;;;;;;;7.90;3.57;;;25.30;53.10;;;;;;5026684;28;21150;-79
2022/07/29 08:31:22;;;;;;;9.97;3.77;;;25.40;53.10;;;;;;5025579;28;20482;-78
2022/07/29 08:33:51;;;;;;;8.93;3.47;;;25.40;53.00;;;;;;5025135;28;20504;-78
2022/07/29 08:36:20;;;;;;;9.70;3.73;;;25.50;53.00;;;;;;5024456;28;21003;-78
2022/07/29 08:38:49;;;;;;;6.33;2.97;;;25.50;53.00;;;;;;5026579;28;20484;-79
2022/07/29 08:41:18;;;;;;;10.60;3.70;;;25.60;53.10;;;;;;5025820;28;20459;-79
2022/07/29 08:43:46;;;;;;;7.30;3.40;;;25.60;53.00;;;;;;5013854;28;20452;-79
2022/07/29 08:46:14;;;;;;;6.93;3.30;;;25.60;52.90;;;;;;5023720;28;20473;-78
2022/07/29 08:48:44;;;;;;;9.53;3.13;;;25.60;52.80;;;;;;5021425;28;20838;-78
2022/07/29 08:51:15;;;;;;;13.77;4.00;;;25.50;52.80;;;;;;5024948;28;20695;-78
2022/07/29 08:53:45;;;;;;;10.20;3.97;;;25.50;52.90;;;;;;5023239;28;20472;-78
2022/07/29 08:56:13;;;;;;;10.00;3.80;;;25.50;52.90;;;;;;5024182;28;20468;-78
2022/07/29 08:58:42;;;;;;;13.13;3.67;;;25.50;53.00;;;;;;5025855;28;20492;-78
2022/07/29 09:01:17;;;;;;;6.40;3.30;;;25.50;53.00;;;;;;5022996;28;20497;-78
2022/07/29 09:03:49;;;;;;;9.63;4.30;;;25.40;52.90;;;;;;5025465;28;20456;-78
2022/07/29 09:06:20;;;;;;;12.57;3.80;;;25.40;52.90;;;;;;5024591;28;20809;-78
2022/07/29 09:08:48;;;;;;;12.40;4.27;;;25.40;52.90;;;;;;5025833;28;20499;-77
2022/07/29 09:11:16;;;;;;;11.33;4.33;;;25.40;53.00;;;;;;5024267;28;20460;-78
2022/07/29 09:13:44;;;;;;;12.23;3.53;;;25.40;53.00;;;;;;5028506;28;21044;-78
2022/07/29 09:16:12;;;;;;;6.60;3.40;;;25.40;53.10;;;;;;5020816;28;20468;-77
2022/07/29 09:19:01;;;;;;;7.00;3.60;;;25.40;53.20;;;;;;5024050;28;21050;-78
2022/07/29 09:21:59;;;;;;;8.40;3.57;;;25.30;53.30;;;;;;5024583;28;20467;-78
2022/07/29 09:24:44;;;;;;;13.80;4.50;;;25.30;53.50;;;;;;5024401;28;20453;-78
2022/07/29 09:27:21;;;;;;;7.57;3.43;;;25.30;53.70;;;;;;5026506;28;20971;-77
2022/07/29 09:29:57;;;;;;;7.40;3.17;;;25.30;53.90;;;;;;5023465;28;20484;-78
2022/07/29 09:32:26;;;;;;;12.03;4.40;;;25.30;53.90;;;;;;5023821;28;20484;-78
2022/07/29 09:35:15;;;;;;;6.97;3.10;;;25.30;54.00;;;;;;5025316;28;20509;-78
2022/07/29 09:37:43;;;;;;;8.13;3.40;;;25.40;54.00;;;;;;5023072;28;20464;-78
2022/07/29 09:40:15;;;;;;;6.20;3.23;;;25.40;54.20;;;;;;5025564;28;20459;-78
2022/07/29 09:42:43;;;;;;;8.00;3.67;;;25.50;54.20;;;;;;5021962;28;20458;-78
2022/07/29 09:45:12;;;;;;;5.93;3.20;;;25.50;54.50;;;;;;5017225;28;20859;-78
2022/07/29 09:47:48;;;;;;;6.90;3.50;;;25.60;54.80;;;;;;5023064;28;20453;-78
2022/07/29 09:50:23;;;;;;;10.90;3.20;;;25.70;55.00;;;;;;5024170;28;20464;-77
2022/07/29 09:52:53;;;;;;;13.27;3.80;;;25.80;55.00;;;;;;5015365;28;20723;-78
2022/07/29 09:55:21;;;;;;;7.60;3.23;;;25.80;54.80;;;;;;5023953;28;20488;-78
2022/07/29 09:57:48;;;;;;;8.33;4.10;;;25.80;54.80;;;;;;5022430;28;20449;-78
2022/07/29 10:00:18;;;;;;;7.47;3.83;;;25.80;54.90;;;;;;5015515;28;20465;-78
2022/07/29 10:02:48;;;;;;;9.83;4.07;;;25.90;54.80;;;;;;5023705;28;20457;-77
2022/07/29 10:05:22;;;;;;;8.07;3.70;;;25.90;54.70;;;;;;5024732;28;20462;-78
2022/07/29 10:07:52;;;;;;;8.77;3.47;;;25.90;54.50;;;;;;5022906;28;20458;-78
2022/07/29 10:10:25;;;;;;;7.73;3.70;;;25.90;54.50;;;;;;5030126;28;20457;-78
2022/07/29 10:12:56;;;;;;;9.77;3.80;;;25.90;54.40;;;;;;5025349;28;21000;-77
2022/07/29 10:15:28;;;;;;;8.43;3.80;;;25.90;54.40;;;;;;5021813;28;20476;-78
2022/07/29 10:17:57;;;;;;;7.13;3.87;;;25.90;54.50;;;;;;5010380;28;20482;-78
2022/07/29 10:20:28;;;;;;;8.17;3.90;;;25.90;54.60;;;;;;5025159;28;20472;-78
2022/07/29 10:22:56;;;;;;;7.77;3.70;;;26.00;54.60;;;;;;5011378;28;20466;-78
2022/07/29 10:25:25;;;;;;;8.07;3.30;;;26.00;54.60;;;;;;5025075;28;20955;-78
2022/07/29 10:27:54;;;;;;;8.40;3.00;;;26.10;54.60;;;;;;5023318;28;20457;-78
2022/07/29 10:30:24;;;;;;;5.70;3.07;;;26.10;54.60;;;;;;5022601;28;20792;-77
2022/07/29 10:33:14;;;;;;;6.20;3.10;;;26.10;54.50;;;;;;5024832;28;20464;-78
2022/07/29 10:36:00;;;;;;;5.60;3.00;;;26.20;54.60;;;;;;5018622;28;20496;-78
2022/07/29 10:38:48;;;;;;;6.50;3.00;;;26.20;54.90;;;;;;5021610;28;21041;-78
2022/07/29 10:41:34;;;;;;;6.10;3.10;;;26.20;55.00;;;;;;5021885;28;20467;-78
2022/07/29 10:44:17;;;;;;;7.40;2.80;;;26.30;55.00;;;;;;5032507;28;20458;-78
2022/07/29 10:46:46;;;;;;;6.20;3.37;;;26.30;55.20;;;;;;5014702;28;20469;-78
2022/07/29 10:49:17;;;;;;;7.53;3.17;;;26.30;55.20;;;;;;5027421;28;20516;-78
2022/07/29 10:51:59;;;;;;;9.43;2.73;;;26.40;55.20;;;;;;5027383;28;20526;-78
2022/07/29 10:54:50;;;;;;;12.53;3.17;;;26.40;55.20;;;;;;5026739;28;20499;-78
2022/07/29 10:57:25;;;;;;;6.53;2.93;;;26.50;55.20;;;;;;5028542;28;20470;-78
2022/07/29 11:00:31;;;;;;;7.03;3.10;;;26.50;55.20;;;;;;5026348;28;20600;-78
2022/07/29 11:03:00;;;;;;;7.30;2.87;;;26.50;55.30;;;;;;5027778;28;21346;-78
2022/07/29 11:05:55;;;;;;;7.60;3.13;;;26.50;55.30;;;;;;5027167;28;20821;-78
2022/07/29 11:08:28;;;;;;;7.27;2.67;;;26.60;55.40;;;;;;5027679;28;20584;-78
2022/07/29 11:11:38;;;;;;;10.00;3.20;;;26.60;55.40;;;;;;5028343;28;20475;-78
2022/07/29 11:14:10;;;;;;;6.80;3.33;;;26.70;55.60;;;;;;5027794;28;20563;-78
2022/07/29 11:17:03;;;;;;;6.10;3.00;;;26.80;55.60;;;;;;5025917;28;20479;-78
2022/07/29 11:19:33;;;;;;;5.70;2.70;;;26.90;55.50;;;;;;5012790;28;20564;-78
2022/07/29 11:22:03;;;;;;;6.00;3.50;;;26.90;55.40;;;;;;5023320;28;20484;-78
2022/07/29 11:24:34;;;;;;;5.83;3.10;;;26.90;55.40;;;;;;5026203;28;20532;-78
2022/07/29 11:27:14;;;;;;;6.03;3.47;;;26.90;55.40;;;;;;5016802;28;20456;-78
2022/07/29 11:29:55;;;;;;;7.13;3.17;;;27.00;55.30;;;;;;5018880;28;20563;-77
2022/07/29 11:32:25;;;;;;;5.07;2.83;;;27.00;55.30;;;;;;5023893;28;20486;-77
2022/07/29 11:35:15;;;;;;;5.80;3.10;;;27.00;55.30;;;;;;5023143;28;20497;-78
2022/07/29 11:37:46;;;;;;;7.37;3.07;;;27.00;55.20;;;;;;5016199;28;20519;-78
2022/07/29 11:40:24;;;;;;;7.70;3.30;;;27.00;55.20;;;;;;5026904;28;20520;-78
2022/07/29 11:42:52;;;;;;;5.30;3.10;;;27.00;55.20;;;;;;5026902;28;20459;-78
2022/07/29 11:45:47;;;;;;;6.23;3.13;;;27.10;55.30;;;;;;5025952;28;21101;-78
2022/07/29 11:48:19;;;;;;;6.60;4.07;;;27.10;55.40;;;;;;5025717;28;20508;-78
2022/07/29 11:50:59;;;;;;;5.47;3.00;;;27.10;55.40;;;;;;5025721;28;20544;-78
2022/07/29 11:53:27;;;;;;;8.20;3.30;;;27.20;55.50;;;;;;5026288;28;20459;-78
2022/07/29 11:56:02;;;;;;;10.53;4.20;;;27.20;55.50;;;;;;5025623;28;20482;-77
2022/07/29 11:58:31;;;;;;;7.70;4.00;;;27.30;55.40;;;;;;5024699;28;20561;-78
2022/07/29 12:01:00;;;;;;;5.63;3.83;;;27.30;55.50;;;;;;5030829;28;20469;-78
2022/07/29 12:03:34;;;;;;;9.50;3.83;;;27.40;55.70;;;;;;5029859;28;20966;-78
2022/07/29 12:06:12;;;;;;;5.60;3.63;;;27.40;55.70;;;;;;5032019;28;20550;-78
2022/07/29 12:08:42;;;;;;;7.67;3.37;;;27.50;55.70;;;;;;5032969;28;20509;-78
2022/07/29 12:11:19;;;;;;;8.60;4.30;;;27.50;55.70;;;;;;5031372;28;20502;-78
2022/07/29 12:13:49;;;;;;;8.60;3.00;;;27.60;55.60;;;;;;5030319;28;20470;-78
2022/07/29 12:16:18;;;;;;;7.30;3.43;;;27.60;55.40;;;;;;5031188;28;20480;-77
2022/07/29 12:19:00;;;;;;;8.87;4.10;;;27.60;55.20;;;;;;5030959;28;20470;-78
2022/07/29 12:21:43;;;;;;;6.80;4.03;;;27.60;55.20;;;;;;5022216;28;20510;-77
2022/07/29 12:24:26;;;;;;;6.63;4.03;;;27.60;55.10;;;;;;5021393;28;20851;-77
2022/07/29 12:26:57;;;;;;;5.93;3.93;;;27.50;55.20;;;;;;5023506;28;20459;-78
2022/07/29 12:29:27;;;;;;;7.13;3.67;;;27.50;55.20;;;;;;5021277;28;20485;-78
2022/07/29 12:32:05;;;;;;;6.70;3.57;;;27.50;55.10;;;;;;5012349;28;20494;-77
2022/07/29 12:34:46;;;;;;;6.57;3.47;;;27.50;55.10;;;;;;5011388;28;21017;-78
2022/07/29 12:37:14;;;;;;;10.73;4.43;;;27.40;55.10;;;;;;5022762;28;20561;-77
2022/07/29 12:39:43;;;;;;;7.43;3.67;;;27.40;55.00;;;;;;5024078;28;21189;-78
2022/07/29 12:42:16;;;;;;;12.10;4.23;;;27.40;54.90;;;;;;5009003;28;20833;-78
2022/07/29 12:44:47;;;;;;;8.00;3.80;;;27.30;55.00;;;;;;5022192;28;20851;-80
2022/07/29 12:47:17;;;;;;;14.30;4.30;;;27.30;55.00;;;;;;5016724;28;20457;-79
2022/07/29 12:49:46;;;;;;;5.97;3.77;;;27.30;55.00;;;;;;5026116;28;20499;-79
2022/07/29 12:52:32;;;;;;;6.00;3.60;;;27.20;55.10;;;;;;5024365;28;20482;-79
2022/07/29 12:55:00;;;;;;;7.97;3.97;;;27.20;55.10;;;;;;5025464;28;20575;-79
2022/07/29 12:57:31;;;;;;;5.43;3.30;;;27.20;55.20;;;;;;5023128;28;20558;-79
2022/07/29 13:00:07;;;;;;;8.30;3.70;;;27.10;55.40;;;;;;5025752;28;20480;-78
2022/07/29 13:02:35;;;;;;;7.10;4.00;;;27.10;55.60;;;;;;5022942;28;20485;-78
2022/07/29 13:05:08;;;;;;;7.50;4.17;;;27.00;56.30;;;;;;5025052;28;21111;-79
2022/07/29 13:07:37;;;;;;;8.30;4.60;;;26.90;57.00;;;;;;5024462;28;20465;-79
2022/07/29 13:10:24;;;;;;;8.00;5.10;;;26.90;57.50;;;;;;5023109;28;20867;-78